Time;durP1;ratioP1;P1;durP2;ratioP2;P2;SDS_P1;SDS_P2;PMS_P1;PMS_P2;Temp;Humidity;BMP_temperature;BMP_pressure;BME280_temperature;BME280_humidity;BME280_pressure;Samples;Min_cycle;Max_cycle;Signal;HPM_P1;HPM_P2
2023/08/09 00:07:42;;;;;;;18.15;11.45;;;13.90;99.90;;;;;;20833762;28;20041;-40
2023/08/09 00:17:42;;;;;;;17.20;11.50;;;13.90;99.90;;;;;;20826959;28;20029;-40
2023/08/09 00:27:43;;;;;;;18.88;12.40;;;13.80;99.90;;;;;;20820774;28;20594;-40
2023/08/09 00:37:43;;;;;;;18.05;12.02;;;13.80;99.90;;;;;;20832439;28;20139;-40
2023/08/09 00:47:44;;;;;;;18.43;11.87;;;13.80;99.90;;;;;;20825188;28;20134;-41
2023/08/09 00:57:47;;;;;;;19.60;11.52;;;13.70;99.90;;;;;;20825096;28;20869;-40
2023/08/09 01:08:03;;;;;;;20.65;11.75;;;13.70;99.90;;;;;;20823661;28;20029;-40
2023/08/09 01:18:06;;;;;;;19.08;11.07;;;13.60;99.90;;;;;;20818826;28;20053;-40
2023/08/09 01:28:07;;;;;;;15.13;10.70;;;13.60;99.90;;;;;;20814981;28;20057;-40
2023/08/09 01:38:16;;;;;;;18.00;10.32;;;13.60;99.90;;;;;;20826415;28;20044;-41
2023/08/09 01:48:17;;;;;;;14.23;9.52;;;13.50;99.90;;;;;;20823664;28;20083;-41
2023/08/09 01:58:17;;;;;;;13.63;8.90;;;13.50;99.90;;;;;;20829687;28;20354;-40
2023/08/09 02:08:18;;;;;;;14.32;10.23;;;13.40;99.90;;;;;;20834022;28;20049;-40
2023/08/09 02:18:18;;;;;;;12.65;8.45;;;13.30;99.90;;;;;;20831401;28;20052;-40
2023/08/09 02:28:19;;;;;;;14.05;9.23;;;13.30;99.90;;;;;;20840419;28;20409;-41
2023/08/09 02:38:21;;;;;;;15.60;10.23;;;13.20;99.90;;;;;;20834013;28;20172;-40
2023/08/09 02:48:22;;;;;;;15.70;11.25;;;13.20;99.90;;;;;;20829489;28;20044;-40
2023/08/09 02:58:23;;;;;;;17.13;11.77;;;13.30;99.90;;;;;;20833703;28;20178;-40
2023/08/09 03:08:23;;;;;;;13.27;9.57;;;13.40;99.90;;;;;;20828358;28;20128;-40
2023/08/09 03:18:24;;;;;;;14.90;9.88;;;13.30;99.90;;;;;;20824355;28;21206;-40
2023/08/09 03:28:25;;;;;;;12.33;9.13;;;13.20;99.90;;;;;;20834566;28;20177;-40
2023/08/09 03:38:25;;;;;;;13.88;9.82;;;13.20;99.90;;;;;;20828625;28;20556;-40
2023/08/09 03:48:26;;;;;;;14.02;9.57;;;13.20;99.90;;;;;;20827276;28;20103;-40
2023/08/09 03:58:27;;;;;;;14.35;9.70;;;13.10;99.90;;;;;;20828318;28;20037;-40
2023/08/09 04:08:29;;;;;;;18.70;11.27;;;13.00;99.90;;;;;;20832184;28;20125;-40
2023/08/09 04:18:29;;;;;;;18.08;11.63;;;13.10;99.90;;;;;;20822093;28;20041;-40
2023/08/09 04:28:30;;;;;;;17.40;11.90;;;13.00;99.90;;;;;;20824159;28;20542;-40
2023/08/09 04:38:31;;;;;;;17.30;11.77;;;13.00;99.90;;;;;;20815338;28;20053;-40
2023/08/09 04:48:31;;;;;;;21.50;13.45;;;13.10;99.90;;;;;;20816777;28;20061;-40
2023/08/09 04:58:32;;;;;;;18.57;12.93;;;13.20;99.90;;;;;;20816156;28;20053;-40
2023/08/09 05:08:33;;;;;;;17.67;12.55;;;13.20;99.90;;;;;;20819768;28;20045;-40
2023/08/09 05:18:33;;;;;;;21.63;14.47;;;13.30;99.90;;;;;;20818503;28;20086;-40
2023/08/09 05:28:34;;;;;;;16.85;12.15;;;13.50;99.90;;;;;;20831479;28;20994;-40
2023/08/09 05:38:34;;;;;;;20.48;12.20;;;13.80;99.90;;;;;;20851579;28;20055;-40
2023/08/09 05:48:36;;;;;;;15.48;10.38;;;14.20;99.90;;;;;;20835737;28;20076;-40
2023/08/09 05:58:37;;;;;;;16.35;10.68;;;14.50;99.90;;;;;;20837133;28;20041;-40
2023/08/09 06:08:39;;;;;;;16.52;10.57;;;14.60;99.90;;;;;;20829543;28;20163;-40
2023/08/09 06:18:39;;;;;;;20.98;11.73;;;14.70;99.90;;;;;;20850140;28;20092;-40
2023/08/09 06:28:40;;;;;;;33.13;19.92;;;14.90;99.90;;;;;;20814955;28;20041;-41
2023/08/09 06:38:41;;;;;;;27.52;16.10;;;15.10;99.90;;;;;;20861756;28;20045;-41
2023/08/09 06:48:41;;;;;;;23.70;14.63;;;15.30;99.90;;;;;;20852168;28;20681;-41
2023/08/09 06:58:42;;;;;;;25.27;16.02;;;15.60;99.90;;;;;;20860043;28;20626;-41
2023/08/09 07:08:42;;;;;;;21.80;14.37;;;15.90;99.90;;;;;;20857422;28;20044;-41
2023/08/09 07:18:43;;;;;;;23.90;13.98;;;16.00;99.90;;;;;;20842225;28;20459;-41
2023/08/09 07:28:43;;;;;;;15.98;10.80;;;16.20;99.90;;;;;;20838704;28;20116;-41
2023/08/09 07:38:44;;;;;;;12.43;8.98;;;16.40;99.90;;;;;;20840163;28;20495;-41
2023/08/09 07:48:45;;;;;;;12.83;7.80;;;16.70;99.90;;;;;;20853725;28;20431;-41
2023/08/09 07:58:45;;;;;;;9.60;7.55;;;17.10;99.90;;;;;;20815222;28;20448;-41
2023/08/09 08:08:46;;;;;;;9.10;6.82;;;17.30;99.90;;;;;;20852615;28;20036;-41
2023/08/09 08:18:47;;;;;;;8.70;5.47;;;17.50;99.90;;;;;;20840570;28;20036;-41
2023/08/09 08:28:47;;;;;;;8.48;5.40;;;17.60;93.20;;;;;;20865069;28;20086;-41
2023/08/09 08:38:48;;;;;;;8.05;4.97;;;17.80;33.70;;;;;;20835085;28;20045;-41
2023/08/09 08:48:49;;;;;;;6.10;3.40;;;17.70;17.20;;;;;;20832896;28;20087;-41
2023/08/09 08:58:50;;;;;;;5.47;4.18;;;18.10;2.10;;;;;;20843339;28;20049;-41
2023/08/09 09:08:55;;;;;;;5.57;3.60;;;18.40;16.70;;;;;;20837522;28;20382;-41
2023/08/09 09:18:55;;;;;;;4.53;3.25;;;18.60;1.00;;;;;;20837530;28;20041;-41
2023/08/09 09:28:57;;;;;;;5.15;3.08;;;18.80;1.00;;;;;;20840633;28;20032;-41
2023/08/09 09:38:59;;;;;;;5.72;3.80;;;18.50;1.00;;;;;;20843585;28;20041;-41
2023/08/09 09:49:05;;;;;;;3.28;1.83;;;19.00;1.00;;;;;;20831608;28;20451;-41
2023/08/09 09:59:07;;;;;;;6.70;4.88;;;19.90;1.00;;;;;;20840338;28;20083;-41
2023/08/09 10:09:10;;;;;;;3.85;1.95;;;20.40;1.00;;;;;;20847069;28;20072;-41
2023/08/09 10:19:15;;;;;;;5.80;2.40;;;21.20;1.00;;;;;;20857571;28;20442;-41
2023/08/09 10:29:21;;;;;;;3.08;1.67;;;21.60;1.00;;;;;;20856954;28;20032;-41
2023/08/09 10:39:22;;;;;;;4.60;1.48;;;20.50;1.00;;;;;;20858215;28;20044;-41
2023/08/09 10:49:47;;;;;;;4.72;1.23;;;21.10;1.00;;;;;;20851270;28;20041;-41
2023/08/09 10:59:57;;;;;;;5.50;1.27;;;21.10;1.00;;;;;;20846110;28;20091;-41
2023/08/09 11:09:57;;;;;;;4.75;1.23;;;21.50;1.00;;;;;;20815529;28;20032;-40
2023/08/09 11:19:58;;;;;;;3.35;1.10;;;21.70;1.00;;;;;;20854806;28;20639;-41
2023/08/09 11:30:00;;;;;;;2.30;1.02;;;22.10;1.00;;;;;;20848308;28;20044;-41
2023/08/09 11:40:00;;;;;;;4.53;1.00;;;22.40;1.00;;;;;;20840977;28;20041;-41
2023/08/09 11:50:10;;;;;;;4.23;0.90;;;22.50;1.00;;;;;;20845885;28;20064;-41
2023/08/09 12:00:12;;;;;;;2.55;0.80;;;22.50;1.00;;;;;;20842961;28;20406;-40
2023/08/09 12:10:18;;;;;;;3.10;1.00;;;22.70;1.00;;;;;;20846121;28;20048;-41
2023/08/09 12:20:18;;;;;;;1.52;0.82;;;22.60;1.00;;;;;;20836902;28;20357;-41
2023/08/09 12:30:19;;;;;;;3.83;0.70;;;22.80;1.00;;;;;;20842703;28;20044;-41
2023/08/09 12:40:21;;;;;;;3.53;0.85;;;23.10;1.00;;;;;;20838495;28;20054;-41
2023/08/09 12:50:22;;;;;;;5.78;1.30;;;23.10;1.00;;;;;;20838809;28;21502;-41
2023/08/09 13:00:23;;;;;;;3.88;1.50;;;22.70;1.00;;;;;;20838856;28;20029;-41
2023/08/09 13:10:24;;;;;;;2.38;0.73;;;22.70;1.00;;;;;;20837125;28;20047;-41
2023/08/09 13:20:26;;;;;;;3.78;1.02;;;22.50;1.00;;;;;;20839602;28;20318;-41
2023/08/09 13:30:27;;;;;;;3.13;0.73;;;22.20;1.00;;;;;;20837568;28;20382;-41
2023/08/09 13:40:27;;;;;;;2.65;1.00;;;22.50;1.00;;;;;;20841716;28;20052;-41
2023/08/09 13:50:28;;;;;;;4.93;1.73;;;22.50;1.00;;;;;;20830676;28;20668;-41
2023/08/09 14:00:30;;;;;;;2.80;0.93;;;22.80;1.00;;;;;;20857953;28;20504;-41
2023/08/09 14:10:31;;;;;;;3.78;0.80;;;22.40;1.00;;;;;;20877191;28;20075;-41
2023/08/09 14:20:32;;;;;;;3.13;0.95;;;22.60;1.00;;;;;;20822068;28;20045;-41
2023/08/09 14:30:32;;;;;;;3.33;1.20;;;22.20;1.00;;;;;;20857916;28;20036;-41
2023/08/09 14:40:33;;;;;;;3.55;0.80;;;21.60;1.00;;;;;;20851168;28;20052;-41
2023/08/09 14:50:34;;;;;;;3.40;1.00;;;21.40;1.00;;;;;;20836799;28;20059;-40
2023/08/09 15:00:35;;;;;;;3.10;1.08;;;21.40;1.00;;;;;;20841940;28;20041;-41
2023/08/09 15:10:37;;;;;;;2.77;0.77;;;21.10;1.00;;;;;;20840278;28;20037;-41
2023/08/09 15:20:37;;;;;;;4.40;0.95;;;21.20;1.00;;;;;;20839359;28;20049;-41
2023/08/09 15:30:38;;;;;;;2.53;0.80;;;21.30;1.00;;;;;;20833995;28;20083;-41
2023/08/09 15:40:38;;;;;;;9.18;1.65;;;21.10;1.00;;;;;;20862491;28;20449;-40
2023/08/09 15:50:40;;;;;;;3.78;1.05;;;21.00;1.00;;;;;;20850980;28;20095;-40
2023/08/09 16:00:42;;;;;;;2.35;0.85;;;20.60;1.00;;;;;;20842778;28;20049;-41
2023/08/09 16:10:42;;;;;;;2.78;0.80;;;20.50;1.00;;;;;;20847061;28;20040;-40
2023/08/09 16:20:44;;;;;;;3.47;0.90;;;20.40;1.00;;;;;;20845436;28;20055;-41
2023/08/09 16:30:44;;;;;;;2.33;0.80;;;20.10;1.00;;;;;;20837102;28;20043;-41
2023/08/09 16:40:45;;;;;;;4.53;0.80;;;19.80;1.00;;;;;;20832354;28;20048;-41
2023/08/09 16:50:45;;;;;;;2.95;1.00;;;19.60;1.00;;;;;;20836554;28;20533;-41
2023/08/09 17:00:46;;;;;;;3.92;0.93;;;19.60;1.00;;;;;;20838836;28;20114;-40
2023/08/09 17:10:47;;;;;;;2.75;0.80;;;19.40;1.00;;;;;;20844466;28;20037;-40
2023/08/09 17:20:47;;;;;;;3.35;0.65;;;19.20;1.00;;;;;;20816605;28;20434;-40
2023/08/09 17:30:48;;;;;;;2.78;0.50;;;19.10;1.00;;;;;;20838192;28;20028;-41
2023/08/09 17:40:49;;;;;;;1.92;0.70;;;19.00;1.00;;;;;;20858998;28;20438;-41
2023/08/09 17:50:50;;;;;;;4.60;1.38;;;18.90;1.00;;;;;;20882108;28;20036;-41
2023/08/09 18:00:50;;;;;;;3.88;0.80;;;18.80;1.00;;;;;;20869780;28;20660;-41
2023/08/09 18:10:53;;;;;;;3.58;0.80;;;18.60;1.00;;;;;;20881725;28;20045;-41
2023/08/09 18:20:54;;;;;;;5.03;0.85;;;18.30;1.00;;;;;;20879235;28;20036;-40
2023/08/09 18:30:55;;;;;;;3.78;0.70;;;18.10;1.00;;;;;;20888064;28;20404;-41
2023/08/09 18:40:55;;;;;;;6.25;0.90;;;18.10;1.00;;;;;;20875120;28;20057;-41
2023/08/09 18:50:56;;;;;;;2.70;1.00;;;17.80;1.00;;;;;;20877634;28;20037;-41
2023/08/09 19:00:56;;;;;;;3.45;0.88;;;17.50;1.00;;;;;;20871632;28;20083;-41
2023/08/09 19:10:57;;;;;;;5.10;1.10;;;17.30;1.00;;;;;;20874837;28;20228;-40
2023/08/09 19:20:58;;;;;;;5.38;1.20;;;17.10;1.00;;;;;;20860905;28;20610;-41
2023/08/09 19:31:02;;;;;;;2.17;1.00;;;16.70;1.00;;;;;;20841316;28;20057;-40
2023/08/09 19:41:03;;;;;;;5.03;0.75;;;16.60;1.00;;;;;;20840910;28;20590;-40
2023/08/09 19:51:03;;;;;;;3.35;0.98;;;16.40;1.00;;;;;;20839443;28;20171;-40
2023/08/09 20:01:06;;;;;;;2.63;0.90;;;16.10;1.00;;;;;;20835775;28;20084;-41
2023/08/09 20:11:07;;;;;;;2.80;0.70;;;15.80;1.00;;;;;;20843249;28;20281;-40
2023/08/09 20:21:07;;;;;;;2.67;0.90;;;15.60;1.00;;;;;;20844692;28;20033;-40
2023/08/09 20:31:08;;;;;;;3.17;1.10;;;15.30;1.00;;;;;;20837302;28;20049;-40
2023/08/09 20:41:08;;;;;;;3.95;1.35;;;15.30;1.00;;;;;;20838018;28;20136;-40
2023/08/09 20:51:09;;;;;;;5.47;1.63;;;15.30;1.00;;;;;;20832199;28;20163;-40
2023/08/09 21:01:11;;;;;;;6.78;3.33;;;15.30;1.00;;;;;;20845239;28;20578;-41
2023/08/09 21:11:12;;;;;;;8.70;4.50;;;15.20;1.00;;;;;;20831477;28;20598;-40
2023/08/09 21:21:12;;;;;;;7.10;3.60;;;15.10;1.00;;;;;;20823960;28;20092;-40
2023/08/09 21:31:13;;;;;;;5.30;2.00;;;15.00;1.00;;;;;;20818435;28;20096;-40
2023/08/09 21:41:14;;;;;;;3.25;1.42;;;15.00;1.00;;;;;;20822241;28;20074;-40
2023/08/09 21:51:14;;;;;;;6.95;1.40;;;15.00;1.00;;;;;;20823856;28;20083;-40
2023/08/09 22:01:15;;;;;;;5.32;1.85;;;14.90;1.00;;;;;;20824220;28;20057;-41
2023/08/09 22:11:16;;;;;;;2.88;1.40;;;14.70;1.00;;;;;;20832094;28;20045;-41
2023/08/09 22:21:17;;;;;;;3.10;1.40;;;14.60;1.00;;;;;;20843653;28;20472;-41
2023/08/09 22:31:17;;;;;;;3.10;1.30;;;14.50;1.00;;;;;;20834697;28;20048;-41
2023/08/09 22:41:21;;;;;;;5.85;1.65;;;14.50;1.00;;;;;;20836448;28;20049;-41
2023/08/09 22:51:21;;;;;;;3.78;1.40;;;14.70;1.00;;;;;;20837943;28;20140;-40
2023/08/09 23:01:22;;;;;;;3.28;1.48;;;14.80;1.00;;;;;;20831185;28;20547;-40
2023/08/09 23:11:22;;;;;;;3.20;1.23;;;15.00;1.00;;;;;;20840191;28;20464;-41
2023/08/09 23:21:23;;;;;;;5.50;1.67;;;15.10;1.00;;;;;;20833029;28;20041;-40
2023/08/09 23:31:23;;;;;;;4.88;1.27;;;15.10;1.00;;;;;;20828836;28;20397;-40
2023/08/09 23:41:24;;;;;;;3.85;1.30;;;15.00;1.00;;;;;;20836217;28;20037;-40
2023/08/09 23:51:25;;;;;;;4.15;1.58;;;14.90;1.00;;;;;;20835480;28;20129;-40
